sensor_id;sensor_type;location;lat;lon;timestamp;P1;durP1;ratioP1;P2;durP2;ratioP2
67986;SDS011;54767;53.800;15.956;2022-10-22T00:00:07;24.20;;;15.40;;
67986;SDS011;54767;53.800;15.956;2022-10-22T00:02:55;22.70;;;15.60;;
67986;SDS011;54767;53.800;15.956;2022-10-22T00:05:22;24.40;;;16.00;;
67986;SDS011;54767;53.800;15.956;2022-10-22T00:07:49;22.50;;;15.10;;
67986;SDS011;54767;53.800;15.956;2022-10-22T00:10:16;21.30;;;14.70;;
67986;SDS011;54767;53.800;15.956;2022-10-22T00:12:44;20.40;;;14.80;;
67986;SDS011;54767;53.800;15.956;2022-10-22T00:15:11;24.80;;;15.70;;
67986;SDS011;54767;53.800;15.956;2022-10-22T00:17:38;25.00;;;15.90;;
67986;SDS011;54767;53.800;15.956;2022-10-22T00:20:05;22.50;;;15.60;;
67986;SDS011;54767;53.800;15.956;2022-10-22T00:22:33;23.60;;;15.10;;
67986;SDS011;54767;53.800;15.956;2022-10-22T00:25:00;23.00;;;15.50;;
67986;SDS011;54767;53.800;15.956;2022-10-22T00:27:27;26.10;;;15.90;;
67986;SDS011;54767;53.800;15.956;2022-10-22T00:29:54;23.90;;;15.30;;
67986;SDS011;54767;53.800;15.956;2022-10-22T00:32:20;22.50;;;15.10;;
67986;SDS011;54767;53.800;15.956;2022-10-22T00:34:47;23.20;;;15.80;;
67986;SDS011;54767;53.800;15.956;2022-10-22T00:37:14;23.60;;;14.90;;
67986;SDS011;54767;53.800;15.956;2022-10-22T00:39:41;21.30;;;14.60;;
67986;SDS011;54767;53.800;15.956;2022-10-22T00:42:19;22.50;;;15.40;;
67986;SDS011;54767;53.800;15.956;2022-10-22T00:47:50;25.80;;;16.20;;
67986;SDS011;54767;53.800;15.956;2022-10-22T00:50:26;26.60;;;16.80;;
67986;SDS011;54767;53.800;15.956;2022-10-22T00:53:09;24.40;;;16.50;;
67986;SDS011;54767;53.800;15.956;2022-10-22T00:55:42;25.50;;;15.70;;
67986;SDS011;54767;53.800;15.956;2022-10-22T00:58:11;25.70;;;15.20;;
67986;SDS011;54767;53.800;15.956;2022-10-22T01:00:39;26.10;;;16.10;;
67986;SDS011;54767;53.800;15.956;2022-10-22T01:03:06;24.00;;;15.60;;
67986;SDS011;54767;53.800;15.956;2022-10-22T01:05:41;24.50;;;16.10;;
67986;SDS011;54767;53.800;15.956;2022-10-22T01:08:24;26.80;;;16.90;;
67986;SDS011;54767;53.800;15.956;2022-10-22T01:16:10;23.60;;;15.70;;
67986;SDS011;54767;53.800;15.956;2022-10-22T01:19:12;25.10;;;15.30;;
67986;SDS011;54767;53.800;15.956;2022-10-22T01:22:07;26.40;;;16.80;;
67986;SDS011;54767;53.800;15.956;2022-10-22T01:27:47;29.20;;;17.60;;
67986;SDS011;54767;53.800;15.956;2022-10-22T01:30:35;32.20;;;18.70;;
67986;SDS011;54767;53.800;15.956;2022-10-22T01:33:05;30.30;;;17.30;;
67986;SDS011;54767;53.800;15.956;2022-10-22T01:35:37;27.60;;;16.30;;
67986;SDS011;54767;53.800;15.956;2022-10-22T01:38:08;29.90;;;17.10;;
67986;SDS011;54767;53.800;15.956;2022-10-22T01:40:39;24.80;;;15.70;;
67986;SDS011;54767;53.800;15.956;2022-10-22T01:43:08;30.40;;;17.40;;
67986;SDS011;54767;53.800;15.956;2022-10-22T01:45:46;29.80;;;17.40;;
67986;SDS011;54767;53.800;15.956;2022-10-22T02:04:26;27.80;;;15.70;;
67986;SDS011;54767;53.800;15.956;2022-10-22T02:07:00;28.30;;;16.00;;
67986;SDS011;54767;53.800;15.956;2022-10-22T02:09:31;28.00;;;16.30;;
67986;SDS011;54767;53.800;15.956;2022-10-22T02:12:00;30.30;;;16.50;;
67986;SDS011;54767;53.800;15.956;2022-10-22T02:16:57;28.70;;;16.10;;
67986;SDS011;54767;53.800;15.956;2022-10-22T02:19:27;29.80;;;15.90;;
67986;SDS011;54767;53.800;15.956;2022-10-22T02:21:55;31.60;;;16.30;;
67986;SDS011;54767;53.800;15.956;2022-10-22T02:24:22;29.00;;;16.40;;
67986;SDS011;54767;53.800;15.956;2022-10-22T02:29:34;28.20;;;15.90;;
67986;SDS011;54767;53.800;15.956;2022-10-22T02:32:07;29.20;;;16.10;;
67986;SDS011;54767;53.800;15.956;2022-10-22T02:37:04;29.20;;;16.20;;
67986;SDS011;54767;53.800;15.956;2022-10-22T02:39:32;26.00;;;15.60;;
67986;SDS011;54767;53.800;15.956;2022-10-22T02:42:01;28.40;;;15.20;;
67986;SDS011;54767;53.800;15.956;2022-10-22T02:44:29;26.50;;;14.90;;
67986;SDS011;54767;53.800;15.956;2022-10-22T02:46:56;28.10;;;15.10;;
67986;SDS011;54767;53.800;15.956;2022-10-22T02:49:24;26.70;;;15.10;;
67986;SDS011;54767;53.800;15.956;2022-10-22T02:51:51;29.80;;;15.70;;
67986;SDS011;54767;53.800;15.956;2022-10-22T02:54:18;28.70;;;15.00;;
67986;SDS011;54767;53.800;15.956;2022-10-22T02:56:44;31.70;;;16.20;;
67986;SDS011;54767;53.800;15.956;2022-10-22T02:59:11;27.60;;;14.90;;
67986;SDS011;54767;53.800;15.956;2022-10-22T03:01:38;26.00;;;14.50;;
67986;SDS011;54767;53.800;15.956;2022-10-22T03:04:05;28.00;;;15.30;;
67986;SDS011;54767;53.800;15.956;2022-10-22T03:06:32;27.20;;;14.50;;
67986;SDS011;54767;53.800;15.956;2022-10-22T03:09:00;26.20;;;14.80;;
67986;SDS011;54767;53.800;15.956;2022-10-22T03:11:27;26.10;;;14.10;;
67986;SDS011;54767;53.800;15.956;2022-10-22T03:13:54;25.20;;;13.90;;
67986;SDS011;54767;53.800;15.956;2022-10-22T03:16:20;25.60;;;14.40;;
67986;SDS011;54767;53.800;15.956;2022-10-22T03:18:47;25.40;;;13.70;;
67986;SDS011;54767;53.800;15.956;2022-10-22T03:21:20;23.70;;;13.20;;
67986;SDS011;54767;53.800;15.956;2022-10-22T03:23:57;21.80;;;12.20;;
67986;SDS011;54767;53.800;15.956;2022-10-22T03:26:27;23.80;;;13.10;;
67986;SDS011;54767;53.800;15.956;2022-10-22T03:28:54;25.40;;;14.10;;
67986;SDS011;54767;53.800;15.956;2022-10-22T03:31:21;23.20;;;13.50;;
67986;SDS011;54767;53.800;15.956;2022-10-22T03:33:48;23.20;;;13.40;;
67986;SDS011;54767;53.800;15.956;2022-10-22T03:36:15;25.50;;;14.00;;
67986;SDS011;54767;53.800;15.956;2022-10-22T03:38:42;23.50;;;13.20;;
67986;SDS011;54767;53.800;15.956;2022-10-22T03:41:09;22.80;;;13.40;;
67986;SDS011;54767;53.800;15.956;2022-10-22T03:43:37;23.90;;;14.10;;
67986;SDS011;54767;53.800;15.956;2022-10-22T03:46:06;23.40;;;13.50;;
67986;SDS011;54767;53.800;15.956;2022-10-22T03:48:33;23.70;;;13.30;;
67986;SDS011;54767;53.800;15.956;2022-10-22T03:51:00;23.30;;;13.60;;
67986;SDS011;54767;53.800;15.956;2022-10-22T03:53:27;22.70;;;13.50;;
67986;SDS011;54767;53.800;15.956;2022-10-22T03:55:54;23.80;;;13.40;;
67986;SDS011;54767;53.800;15.956;2022-10-22T03:58:21;24.20;;;13.90;;
67986;SDS011;54767;53.800;15.956;2022-10-22T04:00:48;26.00;;;14.30;;
67986;SDS011;54767;53.800;15.956;2022-10-22T04:03:15;24.60;;;13.80;;
67986;SDS011;54767;53.800;15.956;2022-10-22T04:05:42;23.70;;;13.80;;
67986;SDS011;54767;53.800;15.956;2022-10-22T04:08:09;22.90;;;13.70;;
67986;SDS011;54767;53.800;15.956;2022-10-22T04:10:36;23.30;;;13.40;;
67986;SDS011;54767;53.800;15.956;2022-10-22T04:13:03;22.10;;;13.10;;
67986;SDS011;54767;53.800;15.956;2022-10-22T04:15:30;22.10;;;13.00;;
67986;SDS011;54767;53.800;15.956;2022-10-22T04:17:58;24.80;;;13.70;;
67986;SDS011;54767;53.800;15.956;2022-10-22T04:20:24;23.70;;;13.40;;
67986;SDS011;54767;53.800;15.956;2022-10-22T04:22:51;23.50;;;13.40;;
67986;SDS011;54767;53.800;15.956;2022-10-22T04:25:18;25.50;;;14.80;;
67986;SDS011;54767;53.800;15.956;2022-10-22T04:27:45;23.00;;;13.10;;
67986;SDS011;54767;53.800;15.956;2022-10-22T04:30:12;24.40;;;13.70;;
67986;SDS011;54767;53.800;15.956;2022-10-22T04:32:39;24.60;;;14.40;;
67986;SDS011;54767;53.800;15.956;2022-10-22T04:35:06;24.70;;;13.90;;
67986;SDS011;54767;53.800;15.956;2022-10-22T04:37:33;22.60;;;12.90;;
67986;SDS011;54767;53.800;15.956;2022-10-22T04:40:00;21.70;;;12.50;;
67986;SDS011;54767;53.800;15.956;2022-10-22T04:42:27;20.90;;;12.40;;
67986;SDS011;54767;53.800;15.956;2022-10-22T04:44:54;22.70;;;13.80;;
67986;SDS011;54767;53.800;15.956;2022-10-22T04:47:21;22.50;;;13.30;;
67986;SDS011;54767;53.800;15.956;2022-10-22T04:49:48;22.80;;;13.50;;
67986;SDS011;54767;53.800;15.956;2022-10-22T04:52:15;21.60;;;12.90;;
67986;SDS011;54767;53.800;15.956;2022-10-22T04:54:42;23.40;;;13.50;;
67986;SDS011;54767;53.800;15.956;2022-10-22T04:57:09;23.00;;;12.40;;
67986;SDS011;54767;53.800;15.956;2022-10-22T04:59:36;22.20;;;12.60;;
67986;SDS011;54767;53.800;15.956;2022-10-22T05:02:03;24.00;;;13.80;;
67986;SDS011;54767;53.800;15.956;2022-10-22T05:04:30;25.10;;;13.70;;
67986;SDS011;54767;53.800;15.956;2022-10-22T05:06:57;23.80;;;13.10;;
67986;SDS011;54767;53.800;15.956;2022-10-22T05:09:24;22.30;;;12.90;;
67986;SDS011;54767;53.800;15.956;2022-10-22T05:11:51;25.00;;;14.80;;
67986;SDS011;54767;53.800;15.956;2022-10-22T05:14:20;25.30;;;14.80;;
67986;SDS011;54767;53.800;15.956;2022-10-22T05:16:49;24.30;;;14.00;;
67986;SDS011;54767;53.800;15.956;2022-10-22T05:19:21;22.70;;;13.00;;
67986;SDS011;54767;53.800;15.956;2022-10-22T05:21:53;23.40;;;13.50;;
67986;SDS011;54767;53.800;15.956;2022-10-22T05:24:23;24.10;;;13.10;;
67986;SDS011;54767;53.800;15.956;2022-10-22T05:26:51;22.70;;;13.30;;
67986;SDS011;54767;53.800;15.956;2022-10-22T05:29:19;22.80;;;13.60;;
67986;SDS011;54767;53.800;15.956;2022-10-22T05:31:46;24.90;;;13.80;;
67986;SDS011;54767;53.800;15.956;2022-10-22T05:34:14;22.00;;;13.20;;
67986;SDS011;54767;53.800;15.956;2022-10-22T05:36:41;23.30;;;13.40;;
67986;SDS011;54767;53.800;15.956;2022-10-22T05:39:08;27.00;;;13.40;;
67986;SDS011;54767;53.800;15.956;2022-10-22T05:41:35;22.10;;;13.60;;
67986;SDS011;54767;53.800;15.956;2022-10-22T05:44:02;24.70;;;13.90;;
67986;SDS011;54767;53.800;15.956;2022-10-22T05:46:32;23.50;;;13.50;;
67986;SDS011;54767;53.800;15.956;2022-10-22T05:49:01;24.90;;;14.10;;
67986;SDS011;54767;53.800;15.956;2022-10-22T05:51:31;25.40;;;14.10;;
67986;SDS011;54767;53.800;15.956;2022-10-22T05:53:59;27.00;;;14.20;;
67986;SDS011;54767;53.800;15.956;2022-10-22T05:56:28;26.00;;;14.60;;
67986;SDS011;54767;53.800;15.956;2022-10-22T05:58:57;23.40;;;13.30;;
67986;SDS011;54767;53.800;15.956;2022-10-22T06:01:26;28.00;;;14.70;;
67986;SDS011;54767;53.800;15.956;2022-10-22T06:03:55;24.70;;;14.90;;
67986;SDS011;54767;53.800;15.956;2022-10-22T06:06:26;24.20;;;13.70;;
67986;SDS011;54767;53.800;15.956;2022-10-22T06:08:58;27.40;;;14.20;;
67986;SDS011;54767;53.800;15.956;2022-10-22T06:11:27;25.00;;;13.40;;
67986;SDS011;54767;53.800;15.956;2022-10-22T06:14:00;26.40;;;15.00;;
67986;SDS011;54767;53.800;15.956;2022-10-22T06:16:27;24.80;;;13.60;;
67986;SDS011;54767;53.800;15.956;2022-10-22T06:18:57;26.70;;;15.60;;
67986;SDS011;54767;53.800;15.956;2022-10-22T06:21:26;27.80;;;15.30;;
67986;SDS011;54767;53.800;15.956;2022-10-22T06:23:54;25.90;;;14.60;;
67986;SDS011;54767;53.800;15.956;2022-10-22T06:26:25;28.40;;;15.20;;
67986;SDS011;54767;53.800;15.956;2022-10-22T06:28:55;29.20;;;14.80;;
67986;SDS011;54767;53.800;15.956;2022-10-22T06:31:26;28.40;;;15.30;;
67986;SDS011;54767;53.800;15.956;2022-10-22T06:34:00;30.40;;;16.20;;
67986;SDS011;54767;53.800;15.956;2022-10-22T06:36:27;34.30;;;19.20;;
67986;SDS011;54767;53.800;15.956;2022-10-22T06:38:54;34.60;;;18.20;;
67986;SDS011;54767;53.800;15.956;2022-10-22T06:41:22;36.20;;;18.00;;
67986;SDS011;54767;53.800;15.956;2022-10-22T06:43:55;31.30;;;17.00;;
67986;SDS011;54767;53.800;15.956;2022-10-22T06:46:23;33.40;;;17.60;;
67986;SDS011;54767;53.800;15.956;2022-10-22T06:48:51;32.60;;;16.30;;
67986;SDS011;54767;53.800;15.956;2022-10-22T06:51:22;31.70;;;17.10;;
67986;SDS011;54767;53.800;15.956;2022-10-22T06:53:50;31.90;;;16.80;;
67986;SDS011;54767;53.800;15.956;2022-10-22T06:56:18;36.40;;;21.00;;
67986;SDS011;54767;53.800;15.956;2022-10-22T06:58:47;31.20;;;16.60;;
67986;SDS011;54767;53.800;15.956;2022-10-22T07:01:14;30.80;;;17.40;;
67986;SDS011;54767;53.800;15.956;2022-10-22T07:03:43;28.40;;;15.60;;
67986;SDS011;54767;53.800;15.956;2022-10-22T07:06:10;33.80;;;17.50;;
67986;SDS011;54767;53.800;15.956;2022-10-22T07:08:39;29.00;;;16.20;;
67986;SDS011;54767;53.800;15.956;2022-10-22T07:11:11;29.50;;;15.60;;
67986;SDS011;54767;53.800;15.956;2022-10-22T07:13:39;28.50;;;15.60;;
67986;SDS011;54767;53.800;15.956;2022-10-22T07:16:06;26.00;;;14.50;;
67986;SDS011;54767;53.800;15.956;2022-10-22T07:18:34;26.50;;;14.10;;
67986;SDS011;54767;53.800;15.956;2022-10-22T07:21:01;26.70;;;14.60;;
67986;SDS011;54767;53.800;15.956;2022-10-22T07:23:30;26.50;;;14.70;;
67986;SDS011;54767;53.800;15.956;2022-10-22T07:25:57;26.00;;;15.00;;
67986;SDS011;54767;53.800;15.956;2022-10-22T07:28:24;27.10;;;14.80;;
67986;SDS011;54767;53.800;15.956;2022-10-22T07:30:53;27.10;;;14.90;;
67986;SDS011;54767;53.800;15.956;2022-10-22T07:33:20;26.60;;;14.40;;
67986;SDS011;54767;53.800;15.956;2022-10-22T07:35:47;24.70;;;13.70;;
67986;SDS011;54767;53.800;15.956;2022-10-22T07:38:14;26.90;;;15.00;;
67986;SDS011;54767;53.800;15.956;2022-10-22T07:40:41;26.80;;;15.00;;
67986;SDS011;54767;53.800;15.956;2022-10-22T07:43:08;26.50;;;14.50;;
67986;SDS011;54767;53.800;15.956;2022-10-22T07:45:35;27.60;;;15.70;;
67986;SDS011;54767;53.800;15.956;2022-10-22T07:48:04;28.10;;;15.60;;
67986;SDS011;54767;53.800;15.956;2022-10-22T07:50:32;26.30;;;15.00;;
67986;SDS011;54767;53.800;15.956;2022-10-22T07:52:59;26.90;;;15.20;;
67986;SDS011;54767;53.800;15.956;2022-10-22T07:55:28;28.40;;;16.40;;
67986;SDS011;54767;53.800;15.956;2022-10-22T07:57:55;30.00;;;17.60;;
67986;SDS011;54767;53.800;15.956;2022-10-22T08:00:22;27.70;;;16.10;;
67986;SDS011;54767;53.800;15.956;2022-10-22T08:02:51;28.60;;;16.60;;
67986;SDS011;54767;53.800;15.956;2022-10-22T08:05:18;25.10;;;14.50;;
67986;SDS011;54767;53.800;15.956;2022-10-22T08:07:45;24.40;;;15.10;;
67986;SDS011;54767;53.800;15.956;2022-10-22T08:10:12;28.30;;;15.80;;
67986;SDS011;54767;53.800;15.956;2022-10-22T08:12:39;27.10;;;15.70;;
67986;SDS011;54767;53.800;15.956;2022-10-22T08:15:08;28.10;;;15.10;;
67986;SDS011;54767;53.800;15.956;2022-10-22T08:17:35;28.10;;;16.60;;
67986;SDS011;54767;53.800;15.956;2022-10-22T08:22:32;27.10;;;14.90;;
67986;SDS011;54767;53.800;15.956;2022-10-22T08:24:59;27.30;;;15.60;;
67986;SDS011;54767;53.800;15.956;2022-10-22T08:27:26;27.60;;;15.30;;
67986;SDS011;54767;53.800;15.956;2022-10-22T08:29:53;27.20;;;15.20;;
67986;SDS011;54767;53.800;15.956;2022-10-22T08:32:21;28.30;;;15.30;;
67986;SDS011;54767;53.800;15.956;2022-10-22T08:34:48;25.80;;;14.90;;
67986;SDS011;54767;53.800;15.956;2022-10-22T08:37:15;27.60;;;15.60;;
67986;SDS011;54767;53.800;15.956;2022-10-22T08:39:43;26.00;;;15.20;;
67986;SDS011;54767;53.800;15.956;2022-10-22T08:42:27;26.40;;;15.10;;
67986;SDS011;54767;53.800;15.956;2022-10-22T08:50:36;27.70;;;16.20;;
67986;SDS011;54767;53.800;15.956;2022-10-22T08:53:10;28.40;;;15.70;;
67986;SDS011;54767;53.800;15.956;2022-10-22T08:55:40;28.30;;;16.10;;
67986;SDS011;54767;53.800;15.956;2022-10-22T09:01:03;27.50;;;15.60;;
67986;SDS011;54767;53.800;15.956;2022-10-22T09:06:19;27.30;;;15.30;;
67986;SDS011;54767;53.800;15.956;2022-10-22T09:08:49;31.20;;;17.50;;
67986;SDS011;54767;53.800;15.956;2022-10-22T09:11:23;29.50;;;15.40;;
67986;SDS011;54767;53.800;15.956;2022-10-22T09:13:58;30.00;;;16.20;;
67986;SDS011;54767;53.800;15.956;2022-10-22T09:16:34;29.00;;;16.30;;
67986;SDS011;54767;53.800;15.956;2022-10-22T09:24:38;31.10;;;15.90;;
67986;SDS011;54767;53.800;15.956;2022-10-22T09:27:19;30.70;;;15.70;;
67986;SDS011;54767;53.800;15.956;2022-10-22T09:29:49;28.60;;;16.20;;
67986;SDS011;54767;53.800;15.956;2022-10-22T09:32:18;32.70;;;17.60;;
67986;SDS011;54767;53.800;15.956;2022-10-22T09:34:48;29.70;;;15.50;;
67986;SDS011;54767;53.800;15.956;2022-10-22T09:37:17;30.60;;;16.20;;
67986;SDS011;54767;53.800;15.956;2022-10-22T09:39:47;33.50;;;17.00;;
67986;SDS011;54767;53.800;15.956;2022-10-22T09:42:18;33.60;;;17.20;;
67986;SDS011;54767;53.800;15.956;2022-10-22T09:44:56;32.00;;;17.30;;
67986;SDS011;54767;53.800;15.956;2022-10-22T09:47:38;32.90;;;16.80;;
67986;SDS011;54767;53.800;15.956;2022-10-22T09:53:46;34.20;;;17.40;;
67986;SDS011;54767;53.800;15.956;2022-10-22T09:56:08;39.80;;;19.50;;
67986;SDS011;54767;53.800;15.956;2022-10-22T09:59:01;39.00;;;18.10;;
67986;SDS011;54767;53.800;15.956;2022-10-22T10:01:35;39.10;;;17.20;;
67986;SDS011;54767;53.800;15.956;2022-10-22T10:04:05;37.70;;;18.00;;
67986;SDS011;54767;53.800;15.956;2022-10-22T10:06:36;37.60;;;18.10;;
67986;SDS011;54767;53.800;15.956;2022-10-22T10:12:05;36.50;;;19.10;;
67986;SDS011;54767;53.800;15.956;2022-10-22T10:17:32;38.50;;;18.90;;
67986;SDS011;54767;53.800;15.956;2022-10-22T10:28:34;41.10;;;18.60;;
67986;SDS011;54767;53.800;15.956;2022-10-22T10:31:09;37.10;;;17.10;;
67986;SDS011;54767;53.800;15.956;2022-10-22T10:39:36;40.00;;;18.00;;
67986;SDS011;54767;53.800;15.956;2022-10-22T10:46:43;36.60;;;17.90;;
67986;SDS011;54767;53.800;15.956;2022-10-22T10:49:57;33.50;;;16.30;;
67986;SDS011;54767;53.800;15.956;2022-10-22T10:52:39;36.20;;;17.70;;
67986;SDS011;54767;53.800;15.956;2022-10-22T10:55:29;36.10;;;17.10;;
67986;SDS011;54767;53.800;15.956;2022-10-22T10:58:10;31.70;;;15.50;;
67986;SDS011;54767;53.800;15.956;2022-10-22T11:00:55;35.20;;;16.70;;
67986;SDS011;54767;53.800;15.956;2022-10-22T11:06:14;33.20;;;15.90;;
67986;SDS011;54767;53.800;15.956;2022-10-22T11:14:12;29.40;;;15.30;;
67986;SDS011;54767;53.800;15.956;2022-10-22T11:17:00;29.20;;;14.70;;
67986;SDS011;54767;53.800;15.956;2022-10-22T11:19:39;30.50;;;15.30;;
67986;SDS011;54767;53.800;15.956;2022-10-22T11:22:21;29.00;;;14.50;;
67986;SDS011;54767;53.800;15.956;2022-10-22T11:25:02;26.60;;;15.10;;
67986;SDS011;54767;53.800;15.956;2022-10-22T11:27:44;29.20;;;15.20;;
67986;SDS011;54767;53.800;15.956;2022-10-22T11:30:14;26.70;;;14.70;;
67986;SDS011;54767;53.800;15.956;2022-10-22T11:32:48;27.60;;;15.10;;
67986;SDS011;54767;53.800;15.956;2022-10-22T11:35:24;26.40;;;14.30;;
67986;SDS011;54767;53.800;15.956;2022-10-22T11:37:54;25.30;;;14.50;;
67986;SDS011;54767;53.800;15.956;2022-10-22T11:40:34;27.60;;;15.20;;
67986;SDS011;54767;53.800;15.956;2022-10-22T11:43:07;25.10;;;13.80;;
67986;SDS011;54767;53.800;15.956;2022-10-22T11:45:36;28.40;;;14.70;;
67986;SDS011;54767;53.800;15.956;2022-10-22T11:53:20;28.80;;;15.50;;
67986;SDS011;54767;53.800;15.956;2022-10-22T11:58:39;28.70;;;14.90;;
67986;SDS011;54767;53.800;15.956;2022-10-22T12:03:37;32.30;;;18.20;;
67986;SDS011;54767;53.800;15.956;2022-10-22T12:08:58;35.90;;;18.00;;
67986;SDS011;54767;53.800;15.956;2022-10-22T12:11:45;33.90;;;18.30;;
67986;SDS011;54767;53.800;15.956;2022-10-22T12:17:01;35.60;;;18.30;;
67986;SDS011;54767;53.800;15.956;2022-10-22T12:19:39;33.80;;;18.50;;
67986;SDS011;54767;53.800;15.956;2022-10-22T12:22:16;33.50;;;19.10;;
67986;SDS011;54767;53.800;15.956;2022-10-22T12:24:47;35.90;;;18.70;;
67986;SDS011;54767;53.800;15.956;2022-10-22T12:27:38;34.70;;;19.00;;
67986;SDS011;54767;53.800;15.956;2022-10-22T12:30:21;38.90;;;19.50;;
67986;SDS011;54767;53.800;15.956;2022-10-22T12:32:51;37.70;;;18.80;;
67986;SDS011;54767;53.800;15.956;2022-10-22T12:35:22;35.30;;;18.50;;
67986;SDS011;54767;53.800;15.956;2022-10-22T12:37:54;36.40;;;17.80;;
67986;SDS011;54767;53.800;15.956;2022-10-22T12:40:26;35.00;;;17.50;;
67986;SDS011;54767;53.800;15.956;2022-10-22T12:43:38;38.30;;;18.00;;
67986;SDS011;54767;53.800;15.956;2022-10-22T12:46:09;34.30;;;17.60;;
67986;SDS011;54767;53.800;15.956;2022-10-22T12:48:40;33.60;;;16.90;;
67986;SDS011;54767;53.800;15.956;2022-10-22T12:51:16;34.20;;;17.80;;
67986;SDS011;54767;53.800;15.956;2022-10-22T12:53:52;34.70;;;18.10;;
67986;SDS011;54767;53.800;15.956;2022-10-22T12:56:28;34.80;;;17.90;;
67986;SDS011;54767;53.800;15.956;2022-10-22T12:59:02;32.60;;;17.60;;
67986;SDS011;54767;53.800;15.956;2022-10-22T13:01:38;34.40;;;17.60;;
67986;SDS011;54767;53.800;15.956;2022-10-22T13:12:12;33.20;;;18.30;;
67986;SDS011;54767;53.800;15.956;2022-10-22T13:14:44;34.90;;;18.20;;
67986;SDS011;54767;53.800;15.956;2022-10-22T13:17:16;39.80;;;18.30;;
67986;SDS011;54767;53.800;15.956;2022-10-22T13:22:23;37.60;;;18.30;;
67986;SDS011;54767;53.800;15.956;2022-10-22T13:24:51;38.60;;;19.20;;
67986;SDS011;54767;53.800;15.956;2022-10-22T13:27:19;36.60;;;19.10;;
67986;SDS011;54767;53.800;15.956;2022-10-22T13:29:49;36.20;;;18.90;;
67986;SDS011;54767;53.800;15.956;2022-10-22T13:32:49;39.90;;;20.10;;
67986;SDS011;54767;53.800;15.956;2022-10-22T13:35:14;34.20;;;18.00;;
67986;SDS011;54767;53.800;15.956;2022-10-22T13:37:46;38.00;;;19.10;;
67986;SDS011;54767;53.800;15.956;2022-10-22T13:40:13;35.50;;;18.30;;
67986;SDS011;54767;53.800;15.956;2022-10-22T13:42:42;36.10;;;19.00;;
67986;SDS011;54767;53.800;15.956;2022-10-22T13:45:10;40.10;;;20.00;;
67986;SDS011;54767;53.800;15.956;2022-10-22T13:47:38;36.40;;;18.70;;
67986;SDS011;54767;53.800;15.956;2022-10-22T13:50:10;39.30;;;19.70;;
67986;SDS011;54767;53.800;15.956;2022-10-22T13:52:43;35.90;;;18.00;;
67986;SDS011;54767;53.800;15.956;2022-10-22T13:55:14;37.20;;;18.10;;
67986;SDS011;54767;53.800;15.956;2022-10-22T13:57:54;35.10;;;17.90;;
67986;SDS011;54767;53.800;15.956;2022-10-22T14:00:25;37.30;;;16.90;;
67986;SDS011;54767;53.800;15.956;2022-10-22T14:02:53;35.90;;;17.80;;
67986;SDS011;54767;53.800;15.956;2022-10-22T14:05:24;36.80;;;17.10;;
67986;SDS011;54767;53.800;15.956;2022-10-22T14:07:51;33.90;;;17.80;;
67986;SDS011;54767;53.800;15.956;2022-10-22T14:10:20;34.90;;;17.60;;
67986;SDS011;54767;53.800;15.956;2022-10-22T14:12:49;34.80;;;16.50;;
67986;SDS011;54767;53.800;15.956;2022-10-22T14:15:23;32.80;;;15.90;;
67986;SDS011;54767;53.800;15.956;2022-10-22T14:17:56;32.30;;;15.40;;
67986;SDS011;54767;53.800;15.956;2022-10-22T14:20:26;29.40;;;15.10;;
67986;SDS011;54767;53.800;15.956;2022-10-22T14:22:58;33.60;;;15.90;;
67986;SDS011;54767;53.800;15.956;2022-10-22T14:25:28;33.30;;;16.50;;
67986;SDS011;54767;53.800;15.956;2022-10-22T14:27:56;32.60;;;15.40;;
67986;SDS011;54767;53.800;15.956;2022-10-22T14:30:24;29.60;;;14.80;;
67986;SDS011;54767;53.800;15.956;2022-10-22T14:32:51;32.60;;;15.80;;
67986;SDS011;54767;53.800;15.956;2022-10-22T14:35:19;33.90;;;15.20;;
67986;SDS011;54767;53.800;15.956;2022-10-22T14:37:48;30.70;;;14.70;;
67986;SDS011;54767;53.800;15.956;2022-10-22T14:40:16;31.10;;;14.10;;
67986;SDS011;54767;53.800;15.956;2022-10-22T14:42:45;31.00;;;14.90;;
67986;SDS011;54767;53.800;15.956;2022-10-22T14:47:51;31.80;;;15.00;;
67986;SDS011;54767;53.800;15.956;2022-10-22T14:50:23;30.70;;;14.40;;
67986;SDS011;54767;53.800;15.956;2022-10-22T14:52:51;28.70;;;13.70;;
67986;SDS011;54767;53.800;15.956;2022-10-22T14:55:18;30.90;;;14.40;;
67986;SDS011;54767;53.800;15.956;2022-10-22T14:57:45;29.30;;;15.60;;
67986;SDS011;54767;53.800;15.956;2022-10-22T15:00:14;28.90;;;14.30;;
67986;SDS011;54767;53.800;15.956;2022-10-22T15:02:43;28.30;;;14.20;;
67986;SDS011;54767;53.800;15.956;2022-10-22T15:05:10;30.80;;;15.30;;
67986;SDS011;54767;53.800;15.956;2022-10-22T15:07:38;30.10;;;15.00;;
67986;SDS011;54767;53.800;15.956;2022-10-22T15:10:06;38.60;;;21.10;;
67986;SDS011;54767;53.800;15.956;2022-10-22T15:12:34;41.70;;;21.90;;
67986;SDS011;54767;53.800;15.956;2022-10-22T15:15:02;38.00;;;19.50;;
67986;SDS011;54767;53.800;15.956;2022-10-22T15:17:30;31.40;;;16.90;;
67986;SDS011;54767;53.800;15.956;2022-10-22T15:19:56;42.30;;;23.90;;
67986;SDS011;54767;53.800;15.956;2022-10-22T15:22:26;29.50;;;16.30;;
67986;SDS011;54767;53.800;15.956;2022-10-22T15:24:54;29.40;;;15.20;;
67986;SDS011;54767;53.800;15.956;2022-10-22T15:27:21;28.20;;;14.80;;
67986;SDS011;54767;53.800;15.956;2022-10-22T15:29:48;29.40;;;19.20;;
67986;SDS011;54767;53.800;15.956;2022-10-22T15:32:14;101.80;;;91.60;;
67986;SDS011;54767;53.800;15.956;2022-10-22T15:34:41;44.40;;;35.60;;
67986;SDS011;54767;53.800;15.956;2022-10-22T15:37:09;38.60;;;27.50;;
67986;SDS011;54767;53.800;15.956;2022-10-22T15:39:39;38.00;;;26.00;;
67986;SDS011;54767;53.800;15.956;2022-10-22T15:42:07;36.50;;;23.00;;
67986;SDS011;54767;53.800;15.956;2022-10-22T15:44:35;35.70;;;20.60;;
67986;SDS011;54767;53.800;15.956;2022-10-22T15:47:02;32.40;;;20.00;;
67986;SDS011;54767;53.800;15.956;2022-10-22T15:49:30;31.40;;;17.80;;
67986;SDS011;54767;53.800;15.956;2022-10-22T15:51:57;29.60;;;18.20;;
67986;SDS011;54767;53.800;15.956;2022-10-22T15:54:25;29.00;;;16.70;;
67986;SDS011;54767;53.800;15.956;2022-10-22T15:56:55;28.20;;;16.70;;
67986;SDS011;54767;53.800;15.956;2022-10-22T15:59:23;27.40;;;16.70;;
67986;SDS011;54767;53.800;15.956;2022-10-22T16:01:50;25.50;;;15.60;;
67986;SDS011;54767;53.800;15.956;2022-10-22T16:04:17;26.80;;;15.60;;
67986;SDS011;54767;53.800;15.956;2022-10-22T16:06:46;26.10;;;14.50;;
67986;SDS011;54767;53.800;15.956;2022-10-22T16:09:16;23.30;;;12.90;;
67986;SDS011;54767;53.800;15.956;2022-10-22T16:11:45;24.70;;;12.20;;
67986;SDS011;54767;53.800;15.956;2022-10-22T16:14:14;24.70;;;13.70;;
67986;SDS011;54767;53.800;15.956;2022-10-22T16:16:43;26.00;;;15.20;;
67986;SDS011;54767;53.800;15.956;2022-10-22T16:19:12;29.20;;;13.70;;
67986;SDS011;54767;53.800;15.956;2022-10-22T16:21:40;26.70;;;13.00;;
67986;SDS011;54767;53.800;15.956;2022-10-22T16:24:07;29.50;;;16.10;;
67986;SDS011;54767;53.800;15.956;2022-10-22T16:26:35;38.70;;;22.50;;